createdAt,value
2023-05-07T00:02:04.951Z,6.10
2023-05-07T00:04:37.653Z,6.10
2023-05-07T00:07:05.502Z,6.00
2023-05-07T00:09:32.530Z,6.10
2023-05-07T00:11:59.858Z,6.00
2023-05-07T00:14:26.944Z,6.10
2023-05-07T00:16:54.371Z,6.00
2023-05-07T00:19:21.355Z,6.10
2023-05-07T00:21:48.852Z,6.10
2023-05-07T00:24:15.875Z,6.00
2023-05-07T00:26:43.249Z,6.30
2023-05-07T00:29:10.271Z,6.10
2023-05-07T00:31:37.602Z,6.10
2023-05-07T00:34:04.573Z,6.10
2023-05-07T00:36:31.901Z,6.00
2023-05-07T00:39:02.793Z,6.00
2023-05-07T00:41:31.630Z,6.00
2023-05-07T00:43:58.946Z,5.90
2023-05-07T00:46:27.056Z,5.90
2023-05-07T00:48:55.355Z,5.90
2023-05-07T00:51:23.121Z,5.90
2023-05-07T00:53:50.542Z,6.00
2023-05-07T00:56:18.055Z,5.90
2023-05-07T00:58:45.210Z,5.90
2023-05-07T01:01:12.565Z,5.90
2023-05-07T01:03:39.752Z,5.90
2023-05-07T01:06:09.083Z,5.80
2023-05-07T01:08:37.563Z,5.80
2023-05-07T01:11:05.423Z,5.80
2023-05-07T01:13:32.799Z,5.80
2023-05-07T01:16:00.432Z,5.80
2023-05-07T01:18:27.882Z,5.80
2023-05-07T01:20:58.975Z,5.80
2023-05-07T01:23:28.596Z,5.80
2023-05-07T01:25:56.279Z,5.80
2023-05-07T01:28:23.625Z,5.70
2023-05-07T01:30:54.529Z,5.70
2023-05-07T01:33:23.315Z,5.70
2023-05-07T01:35:54.150Z,5.70
2023-05-07T01:38:23.355Z,5.70
2023-05-07T01:40:50.951Z,5.70
2023-05-07T01:43:18.478Z,5.70
2023-05-07T01:45:46.928Z,5.70
2023-05-07T01:48:15.080Z,5.80
2023-05-07T01:50:44.182Z,5.60
2023-05-07T01:53:11.106Z,5.70
2023-05-07T01:55:38.361Z,5.70
2023-05-07T01:58:05.523Z,5.60
2023-05-07T02:00:33.085Z,5.70
2023-05-07T02:03:00.378Z,5.70
2023-05-07T02:05:28.131Z,5.70
2023-05-07T02:07:55.061Z,5.60
2023-05-07T02:10:22.403Z,5.60
2023-05-07T02:12:49.353Z,5.60
2023-05-07T02:15:16.644Z,5.60
2023-05-07T02:18:12.978Z,5.60
2023-05-07T02:20:40.181Z,5.60
2023-05-07T02:23:07.228Z,5.60
2023-05-07T02:25:34.525Z,5.60
2023-05-07T02:28:01.635Z,5.60
2023-05-07T02:30:29.526Z,5.60
2023-05-07T02:32:56.705Z,5.60
2023-05-07T02:35:28.358Z,5.80
2023-05-07T02:37:55.286Z,5.60
2023-05-07T02:40:22.715Z,5.60
2023-05-07T02:42:49.689Z,5.60
2023-05-07T02:45:17.097Z,5.70
2023-05-07T02:47:44.035Z,5.60
2023-05-07T02:50:12.082Z,5.60
2023-05-07T02:52:39.281Z,5.60
2023-05-07T02:55:07.165Z,5.90
2023-05-07T02:57:34.115Z,5.60
2023-05-07T03:00:12.043Z,5.70
2023-05-07T03:02:39.199Z,5.70
2023-05-07T03:05:07.234Z,5.70
2023-05-07T03:07:34.942Z,5.70
2023-05-07T03:10:02.217Z,5.70
2023-05-07T03:12:29.415Z,5.70
2023-05-07T03:14:56.760Z,5.70
2023-05-07T03:17:23.749Z,5.80
2023-05-07T03:19:51.277Z,5.80
2023-05-07T03:22:18.286Z,5.80
2023-05-07T03:24:45.609Z,5.80
2023-05-07T03:27:12.738Z,5.80
2023-05-07T03:29:40.470Z,5.80
2023-05-07T03:32:07.495Z,5.90
2023-05-07T03:34:34.836Z,5.90
2023-05-07T03:37:01.772Z,5.90
2023-05-07T03:39:29.152Z,6.00
2023-05-07T03:41:56.163Z,6.00
2023-05-07T03:44:23.653Z,6.00
2023-05-07T03:46:50.823Z,6.00
2023-05-07T03:49:18.459Z,6.00
2023-05-07T03:51:45.606Z,5.90
2023-05-07T03:54:12.920Z,6.00
2023-05-07T03:56:39.829Z,5.90
2023-05-07T03:59:07.192Z,6.00
2023-05-07T04:01:34.251Z,5.90
2023-05-07T04:04:01.693Z,6.00
2023-05-07T04:06:28.693Z,6.00
2023-05-07T04:08:55.904Z,6.00
2023-05-07T04:11:22.999Z,6.10
2023-05-07T04:13:50.620Z,6.10
2023-05-07T04:16:17.593Z,6.10
2023-05-07T04:18:45.141Z,6.10
2023-05-07T04:21:19.877Z,6.20
2023-05-07T04:23:51.153Z,6.20
2023-05-07T04:26:18.108Z,6.20
2023-05-07T04:28:45.883Z,6.30
2023-05-07T04:31:12.973Z,6.20
2023-05-07T04:33:40.702Z,6.20
2023-05-07T04:36:08.030Z,6.20
2023-05-07T04:38:35.260Z,6.20
2023-05-07T04:41:07.102Z,6.20
2023-05-07T04:43:34.485Z,6.20
2023-05-07T04:46:01.716Z,6.20
2023-05-07T04:48:29.952Z,6.20
2023-05-07T04:50:57.078Z,6.30
2023-05-07T04:53:24.536Z,6.30
2023-05-07T04:55:57.814Z,6.30
2023-05-07T04:58:25.539Z,6.40
2023-05-07T05:00:52.862Z,6.40
2023-05-07T05:03:20.209Z,6.50
2023-05-07T05:05:47.226Z,6.50
2023-05-07T05:08:14.658Z,6.60
2023-05-07T05:10:42.660Z,6.90
2023-05-07T05:13:10.421Z,6.70
2023-05-07T05:15:37.439Z,6.80
2023-05-07T05:18:04.815Z,6.70
2023-05-07T05:20:31.916Z,6.90
2023-05-07T05:22:59.408Z,7.00
2023-05-07T05:25:26.949Z,6.90
2023-05-07T05:27:54.323Z,6.90
2023-05-07T05:30:23.106Z,7.00
2023-05-07T05:32:50.719Z,7.20
2023-05-07T05:35:17.876Z,7.30
2023-05-07T05:37:45.111Z,7.30
2023-05-07T05:40:12.798Z,7.30
2023-05-07T05:42:40.806Z,7.30
2023-05-07T05:45:08.564Z,7.30
2023-05-07T05:47:36.280Z,7.30
2023-05-07T05:50:03.417Z,7.20
2023-05-07T05:52:31.117Z,7.30
2023-05-07T05:54:58.595Z,7.40
2023-05-07T05:57:28.613Z,7.30
2023-05-07T05:59:55.993Z,7.40
2023-05-07T06:02:23.771Z,7.30
2023-05-07T06:04:51.108Z,7.40
2023-05-07T06:07:18.441Z,7.40
2023-05-07T06:09:45.429Z,7.30
2023-05-07T06:12:13.208Z,7.30
2023-05-07T06:14:40.337Z,7.40
2023-05-07T06:17:08.214Z,7.50
2023-05-07T06:19:36.053Z,7.50
2023-05-07T06:22:03.698Z,7.80
2023-05-07T06:24:30.947Z,7.90
2023-05-07T06:26:59.486Z,8.20
2023-05-07T06:29:27.085Z,8.40
2023-05-07T06:31:55.147Z,8.50
2023-05-07T06:34:22.344Z,8.60
2023-05-07T06:36:49.586Z,8.70
2023-05-07T06:39:16.811Z,8.50
2023-05-07T06:41:44.195Z,8.30
2023-05-07T06:44:11.252Z,8.20
2023-05-07T06:46:38.695Z,8.40
2023-05-07T06:49:06.079Z,8.50
2023-05-07T06:51:33.641Z,8.80
2023-05-07T06:54:00.725Z,8.80
2023-05-07T06:56:28.251Z,9.40
2023-05-07T06:58:55.228Z,9.10
2023-05-07T07:01:22.650Z,8.70
2023-05-07T07:03:49.814Z,8.60
2023-05-07T07:06:17.358Z,8.70
2023-05-07T07:08:44.364Z,8.70
2023-05-07T07:11:11.853Z,8.80
2023-05-07T07:13:39.082Z,8.90
2023-05-07T07:16:06.847Z,9.00
2023-05-07T07:18:33.861Z,9.30
2023-05-07T07:21:01.211Z,10.70
2023-05-07T07:23:28.171Z,11.50
2023-05-07T07:25:55.565Z,12.40
2023-05-07T07:28:23.487Z,11.60
2023-05-07T07:30:51.329Z,10.70
2023-05-07T07:33:18.476Z,10.30
2023-05-07T07:35:45.785Z,9.70
2023-05-07T07:38:13.112Z,9.30
2023-05-07T07:40:40.941Z,9.20
2023-05-07T07:43:08.044Z,8.90
2023-05-07T07:45:35.894Z,8.90
2023-05-07T07:48:03.098Z,9.20
2023-05-07T07:50:43.572Z,9.40
2023-05-07T07:53:12.705Z,9.60
2023-05-07T07:55:42.541Z,9.70
2023-05-07T07:58:09.675Z,10.10
2023-05-07T08:00:37.777Z,10.50
2023-05-07T08:03:06.189Z,10.30
2023-05-07T08:05:33.705Z,9.90
2023-05-07T08:08:00.759Z,9.80
2023-05-07T08:10:28.432Z,10.10
2023-05-07T08:12:55.781Z,10.30
2023-05-07T08:15:23.233Z,11.00
2023-05-07T08:17:50.387Z,11.60
2023-05-07T08:20:17.819Z,11.70
2023-05-07T08:22:44.813Z,11.00
2023-05-07T08:25:12.173Z,11.20
2023-05-07T08:27:39.345Z,13.30
2023-05-07T08:30:07.260Z,14.20
2023-05-07T08:32:34.300Z,14.70
2023-05-07T08:35:01.815Z,15.60
2023-05-07T08:37:28.942Z,15.50
2023-05-07T08:39:56.223Z,15.50
2023-05-07T08:42:25.956Z,16.00
2023-05-07T08:44:57.260Z,16.60
2023-05-07T08:47:28.172Z,17.00
2023-05-07T08:49:56.391Z,15.90
2023-05-07T08:52:23.720Z,14.20
2023-05-07T08:54:51.628Z,12.90
2023-05-07T08:57:18.705Z,12.40
2023-05-07T08:59:46.011Z,13.40
2023-05-07T09:02:13.186Z,12.70
2023-05-07T09:04:40.705Z,12.50
2023-05-07T09:07:07.753Z,14.20
2023-05-07T09:09:36.033Z,14.60
2023-05-07T09:12:04.760Z,13.60
2023-05-07T09:14:32.651Z,12.50
2023-05-07T09:16:59.640Z,12.90
2023-05-07T09:19:28.483Z,14.00
2023-05-07T09:22:08.014Z,13.90
2023-05-07T09:24:37.414Z,14.20
2023-05-07T09:27:10.021Z,15.20
2023-05-07T09:29:40.244Z,15.60
2023-05-07T09:32:08.508Z,14.40
2023-05-07T09:34:37.228Z,13.40
2023-05-07T09:37:05.776Z,14.50
2023-05-07T09:39:44.566Z,15.80
2023-05-07T09:42:12.633Z,16.80
2023-05-07T09:44:40.369Z,15.80
2023-05-07T09:47:09.091Z,16.90
2023-05-07T09:49:38.476Z,17.70
2023-05-07T09:52:07.600Z,18.30
2023-05-07T09:54:36.501Z,18.50
2023-05-07T09:57:04.167Z,19.30
2023-05-07T09:59:34.007Z,20.30
2023-05-07T10:02:04.833Z,20.10
2023-05-07T10:04:33.318Z,19.20
2023-05-07T10:07:00.805Z,18.70
2023-05-07T10:09:28.303Z,18.10
2023-05-07T10:11:55.978Z,16.00
2023-05-07T10:14:24.181Z,14.40
2023-05-07T10:16:52.056Z,14.00
2023-05-07T10:19:20.411Z,14.10
2023-05-07T10:21:57.927Z,14.40
2023-05-07T10:24:33.731Z,14.70
2023-05-07T10:27:03.788Z,14.40
2023-05-07T10:30:13.596Z,13.60
2023-05-07T10:33:07.411Z,13.60
2023-05-07T10:35:42.139Z,13.60
2023-05-07T10:38:10.132Z,13.40
2023-05-07T10:40:38.249Z,13.30
2023-05-07T10:43:09.498Z,13.10
2023-05-07T10:45:38.405Z,12.30
2023-05-07T10:50:49.326Z,12.40
2023-05-07T10:53:19.565Z,12.50
2023-05-07T10:55:50.047Z,12.60
2023-05-07T10:58:31.347Z,12.70
2023-05-07T11:01:01.684Z,13.10
2023-05-07T11:03:30.095Z,12.90
2023-05-07T11:06:12.417Z,12.60
2023-05-07T11:08:57.939Z,12.60
2023-05-07T11:11:59.241Z,12.50
2023-05-07T11:14:47.145Z,12.30
2023-05-07T11:17:14.697Z,12.10
2023-05-07T11:19:55.831Z,12.10
2023-05-07T11:22:41.937Z,12.10
2023-05-07T11:25:09.157Z,12.30
2023-05-07T11:27:37.032Z,12.10
2023-05-07T11:30:04.466Z,12.10
2023-05-07T11:32:33.638Z,12.10
2023-05-07T11:35:01.995Z,12.10
2023-05-07T11:37:31.373Z,12.40
2023-05-07T11:40:06.771Z,12.50
2023-05-07T11:42:36.780Z,12.50
2023-05-07T11:45:04.553Z,12.50
2023-05-07T11:47:32.444Z,12.40
2023-05-07T11:50:08.741Z,12.70
2023-05-07T11:52:37.081Z,12.80
2023-05-07T11:55:05.783Z,12.80
2023-05-07T11:57:34.852Z,12.90
2023-05-07T12:00:06.472Z,13.10
2023-05-07T12:02:36.164Z,13.10
2023-05-07T12:05:03.710Z,13.20
2023-05-07T12:07:33.041Z,13.30
2023-05-07T12:10:00.268Z,13.30
2023-05-07T12:12:28.264Z,13.30
2023-05-07T12:14:55.538Z,13.10
2023-05-07T12:17:23.363Z,13.00
2023-05-07T12:19:50.911Z,12.80
2023-05-07T12:22:20.278Z,12.60
2023-05-07T12:24:49.550Z,12.30
2023-05-07T12:27:18.305Z,12.20
2023-05-07T12:29:49.733Z,12.10
2023-05-07T12:32:22.090Z,11.90
2023-05-07T12:34:52.564Z,11.90
2023-05-07T12:37:29.148Z,12.10
2023-05-07T12:40:10.170Z,12.30
2023-05-07T12:42:39.184Z,12.60
2023-05-07T12:45:14.464Z,12.90
2023-05-07T12:47:48.456Z,13.30
2023-05-07T12:50:16.620Z,13.60
2023-05-07T12:52:46.094Z,13.70
2023-05-07T12:55:16.751Z,13.50
2023-05-07T12:57:53.939Z,13.40
2023-05-07T13:00:41.019Z,13.40
2023-05-07T13:03:08.588Z,13.70
2023-05-07T13:05:36.182Z,13.80
2023-05-07T13:08:03.544Z,13.80
2023-05-07T13:10:30.734Z,13.60
2023-05-07T13:12:58.360Z,13.30
2023-05-07T13:15:25.665Z,13.00
2023-05-07T13:17:53.224Z,12.60
2023-05-07T13:20:20.592Z,12.50
2023-05-07T13:22:48.060Z,12.60
2023-05-07T13:25:15.258Z,12.80
2023-05-07T13:27:42.800Z,12.90
2023-05-07T13:30:10.083Z,13.00
2023-05-07T13:32:37.632Z,13.20
2023-05-07T13:35:05.676Z,13.30
2023-05-07T13:37:33.085Z,13.60
2023-05-07T13:40:00.516Z,13.70
2023-05-07T13:42:27.909Z,13.50
2023-05-07T13:44:55.126Z,13.50
2023-05-07T13:47:24.036Z,13.50
2023-05-07T13:49:52.033Z,13.50
2023-05-07T13:52:20.223Z,13.60
2023-05-07T13:54:47.256Z,13.90
2023-05-07T13:57:15.008Z,14.70
2023-05-07T13:59:42.464Z,16.70
2023-05-07T14:02:10.349Z,17.60
2023-05-07T14:04:38.935Z,16.80
2023-05-07T14:07:06.812Z,15.40
2023-05-07T14:09:34.182Z,14.70
2023-05-07T14:12:02.513Z,14.40
2023-05-07T14:14:29.617Z,14.00
2023-05-07T14:16:58.119Z,13.70
2023-05-07T14:19:25.760Z,13.90
2023-05-07T14:21:53.246Z,14.60
2023-05-07T14:24:34.509Z,16.10
2023-05-07T14:27:02.346Z,17.60
2023-05-07T14:29:29.765Z,17.90
2023-05-07T14:31:57.317Z,17.50
2023-05-07T14:34:25.577Z,16.30
2023-05-07T14:36:53.372Z,16.50
2023-05-07T14:39:20.801Z,15.90
2023-05-07T14:41:48.491Z,15.20
2023-05-07T14:44:15.712Z,15.30
2023-05-07T14:46:43.710Z,15.40
2023-05-07T14:49:18.084Z,15.60
2023-05-07T14:51:47.423Z,14.80
2023-05-07T14:54:15.833Z,14.20
2023-05-07T14:56:47.171Z,13.60
2023-05-07T14:59:14.242Z,16.60
2023-05-07T15:01:46.342Z,13.50
2023-05-07T15:04:13.615Z,14.00
2023-05-07T15:06:40.912Z,14.50
2023-05-07T15:09:11.857Z,14.60
2023-05-07T15:11:39.237Z,14.70
2023-05-07T15:14:08.947Z,14.40
2023-05-07T15:16:36.289Z,14.00
2023-05-07T15:22:16.978Z,13.50
2023-05-07T15:24:43.908Z,13.20
2023-05-07T15:27:11.544Z,12.90
2023-05-07T15:29:38.950Z,12.60
2023-05-07T15:32:06.313Z,12.50
2023-05-07T15:34:33.337Z,12.50
2023-05-07T15:37:00.633Z,12.60
2023-05-07T15:39:27.698Z,12.80
2023-05-07T15:41:54.965Z,13.00
2023-05-07T15:44:22.175Z,13.30
2023-05-07T15:46:49.409Z,13.50
2023-05-07T15:49:16.410Z,13.60
2023-05-07T15:51:43.861Z,13.60
2023-05-07T15:54:11.014Z,13.50
2023-05-07T15:56:38.744Z,12.90
2023-05-07T15:59:06.150Z,12.50
2023-05-07T16:01:34.067Z,12.20
2023-05-07T16:04:01.328Z,12.10
2023-05-07T16:06:28.591Z,11.90
2023-05-07T16:08:55.604Z,11.90
2023-05-07T16:11:23.161Z,11.80
2023-05-07T16:13:50.186Z,11.80
2023-05-07T16:16:17.433Z,11.90
2023-05-07T16:18:44.454Z,11.70
2023-05-07T16:21:12.049Z,11.70
2023-05-07T16:23:39.046Z,11.70
2023-05-07T16:26:06.668Z,11.60
2023-05-07T16:28:33.614Z,11.60
2023-05-07T16:31:01.296Z,11.50
2023-05-07T16:33:28.365Z,11.50
2023-05-07T16:35:55.630Z,11.50
2023-05-07T16:38:22.662Z,11.50
2023-05-07T16:40:49.956Z,11.50
2023-05-07T16:43:16.892Z,11.40
2023-05-07T16:45:44.788Z,11.40
2023-05-07T16:48:11.885Z,11.40
2023-05-07T16:50:39.304Z,11.40
2023-05-07T16:53:07.299Z,11.40
2023-05-07T16:55:42.712Z,11.30
2023-05-07T16:58:11.262Z,11.30
2023-05-07T17:00:49.827Z,11.30
2023-05-07T17:03:18.395Z,11.30
2023-05-07T17:05:45.874Z,11.20
2023-05-07T17:08:14.259Z,11.10
2023-05-07T17:10:42.312Z,11.10
2023-05-07T17:13:09.626Z,11.00
2023-05-07T17:15:36.960Z,10.90
2023-05-07T17:18:04.409Z,10.90
2023-05-07T17:20:31.752Z,10.90
2023-05-07T17:22:58.673Z,10.80
2023-05-07T17:25:26.031Z,10.70
2023-05-07T17:27:53.144Z,10.70
2023-05-07T17:30:21.250Z,10.50
2023-05-07T17:32:48.406Z,10.40
2023-05-07T17:35:15.822Z,10.40
2023-05-07T17:37:47.303Z,10.30
2023-05-07T17:40:15.404Z,10.30
2023-05-07T17:42:42.394Z,10.20
2023-05-07T17:45:10.105Z,10.10
2023-05-07T17:47:37.054Z,10.00
2023-05-07T17:50:10.475Z,9.90
2023-05-07T17:52:38.847Z,9.90
2023-05-07T17:55:06.692Z,9.70
2023-05-07T17:57:37.351Z,9.60
2023-05-07T18:00:10.253Z,9.50
2023-05-07T18:02:38.134Z,9.40
2023-05-07T18:05:06.087Z,9.30
2023-05-07T18:07:33.082Z,9.10
2023-05-07T18:10:00.892Z,9.00
2023-05-07T18:12:28.170Z,8.80
2023-05-07T18:14:56.066Z,8.60
2023-05-07T18:17:24.391Z,8.40
2023-05-07T18:19:54.772Z,8.30
2023-05-07T18:22:22.249Z,8.20
2023-05-07T18:24:50.648Z,8.00
2023-05-07T18:27:17.849Z,7.90
2023-05-07T18:29:45.187Z,7.70
2023-05-07T18:32:13.757Z,7.60
2023-05-07T18:34:41.308Z,7.50
2023-05-07T18:37:08.312Z,7.40
2023-05-07T18:39:36.606Z,7.20
2023-05-07T18:42:05.377Z,7.10
2023-05-07T18:44:33.309Z,7.00
2023-05-07T18:47:00.404Z,6.90
2023-05-07T18:49:27.650Z,6.80
2023-05-07T18:51:54.581Z,6.80
2023-05-07T18:54:21.919Z,6.70
2023-05-07T18:56:49.357Z,6.60
2023-05-07T18:59:16.787Z,6.50
2023-05-07T19:01:43.896Z,6.40
2023-05-07T19:04:11.522Z,6.30
2023-05-07T19:06:38.568Z,6.30
2023-05-07T19:09:05.944Z,6.20
2023-05-07T19:11:33.140Z,6.10
2023-05-07T19:14:02.276Z,6.10
2023-05-07T19:16:30.925Z,6.00
2023-05-07T19:18:58.328Z,6.00
2023-05-07T19:21:25.435Z,5.90
2023-05-07T19:23:53.802Z,5.90
2023-05-07T19:26:21.293Z,5.80
2023-05-07T19:28:56.997Z,5.80
2023-05-07T19:31:36.936Z,5.70
2023-05-07T19:34:04.219Z,5.70
2023-05-07T19:36:33.376Z,5.70
2023-05-07T19:39:00.660Z,5.70
2023-05-07T19:41:28.937Z,5.60
2023-05-07T19:43:56.369Z,5.70
2023-05-07T19:46:23.416Z,5.70
2023-05-07T19:48:51.478Z,5.70
2023-05-07T19:51:18.456Z,5.60
2023-05-07T19:53:45.973Z,5.60
2023-05-07T19:56:13.096Z,5.50
2023-05-07T19:58:40.491Z,5.50
2023-05-07T20:01:07.759Z,5.50
2023-05-07T20:03:35.716Z,5.40
2023-05-07T20:06:06.107Z,5.30
2023-05-07T20:08:33.543Z,5.30
2023-05-07T20:11:01.029Z,5.20
2023-05-07T20:13:28.411Z,5.20
2023-05-07T20:15:59.838Z,5.20
2023-05-07T20:18:28.722Z,5.20
2023-05-07T20:20:56.399Z,5.10
2023-05-07T20:23:23.986Z,5.10
2023-05-07T20:25:51.076Z,5.10
2023-05-07T20:28:18.689Z,5.10
2023-05-07T20:30:45.763Z,5.00
2023-05-07T20:33:13.636Z,5.00
2023-05-07T20:35:41.392Z,5.00
2023-05-07T20:38:08.877Z,5.00
2023-05-07T20:40:37.925Z,4.90
2023-05-07T20:43:08.523Z,5.10
2023-05-07T20:45:35.804Z,4.90
2023-05-07T20:48:03.283Z,4.90
2023-05-07T20:50:30.662Z,4.80
2023-05-07T20:52:57.842Z,4.80
2023-05-07T20:55:24.836Z,4.80
2023-05-07T20:57:52.247Z,4.80
2023-05-07T21:00:19.361Z,4.70
2023-05-07T21:02:46.631Z,4.70
2023-05-07T21:05:13.674Z,4.70
2023-05-07T21:07:41.148Z,4.70
2023-05-07T21:10:08.604Z,4.60
2023-05-07T21:12:36.140Z,4.60
2023-05-07T21:15:03.529Z,4.60
2023-05-07T21:17:33.063Z,4.50
2023-05-07T21:20:00.059Z,4.50
2023-05-07T21:22:27.347Z,4.40
2023-05-07T21:24:54.273Z,4.30
2023-05-07T21:27:23.048Z,4.30
2023-05-07T21:29:50.607Z,4.20
2023-05-07T21:32:17.825Z,4.20
2023-05-07T21:34:46.238Z,4.10
2023-05-07T21:37:13.689Z,4.10
2023-05-07T21:39:40.746Z,4.10
2023-05-07T21:42:07.945Z,4.10
2023-05-07T21:44:34.871Z,4.20
2023-05-07T21:47:02.090Z,4.20
2023-05-07T21:49:29.127Z,4.20
2023-05-07T21:51:56.806Z,4.20
2023-05-07T21:54:23.777Z,4.30
2023-05-07T21:56:51.154Z,4.20
2023-05-07T21:59:18.101Z,4.20
2023-05-07T22:01:45.971Z,4.10
2023-05-07T22:04:13.019Z,4.10
2023-05-07T22:06:40.484Z,4.10
2023-05-07T22:09:07.955Z,4.00
2023-05-07T22:11:35.338Z,4.00
2023-05-07T22:14:02.339Z,3.90
2023-05-07T22:16:29.843Z,3.90
2023-05-07T22:18:56.917Z,3.80
2023-05-07T22:21:24.244Z,3.80
2023-05-07T22:23:51.222Z,3.70
2023-05-07T22:26:18.664Z,3.70
2023-05-07T22:28:45.873Z,3.60
2023-05-07T22:31:13.153Z,3.60
2023-05-07T22:33:40.085Z,3.60
2023-05-07T22:36:07.970Z,3.60
2023-05-07T22:38:34.959Z,3.50
2023-05-07T22:41:02.221Z,3.50
2023-05-07T22:43:29.174Z,3.50
2023-05-07T22:46:01.128Z,3.40
2023-05-07T22:48:29.002Z,3.50
2023-05-07T22:50:56.649Z,3.40
2023-05-07T22:53:23.917Z,3.30
2023-05-07T22:55:51.515Z,3.30
2023-05-07T22:58:18.552Z,3.30
2023-05-07T23:00:45.935Z,3.20
2023-05-07T23:03:13.080Z,3.20
2023-05-07T23:05:40.485Z,3.10
2023-05-07T23:08:07.411Z,3.10
2023-05-07T23:10:35.096Z,3.00
2023-05-07T23:13:02.849Z,3.00
2023-05-07T23:15:30.214Z,3.60
2023-05-07T23:17:57.220Z,3.00
2023-05-07T23:20:24.441Z,2.90
2023-05-07T23:22:51.381Z,2.90
2023-05-07T23:25:18.656Z,2.90
2023-05-07T23:27:45.712Z,2.80
2023-05-07T23:30:13.566Z,2.80
2023-05-07T23:32:40.966Z,2.70
2023-05-07T23:35:08.925Z,2.70
2023-05-07T23:37:35.923Z,2.70
2023-05-07T23:40:03.660Z,2.60
2023-05-07T23:42:30.731Z,2.60
2023-05-07T23:44:58.146Z,2.50
2023-05-07T23:47:25.179Z,2.50
2023-05-07T23:49:52.601Z,2.40
2023-05-07T23:52:19.521Z,2.40
2023-05-07T23:54:46.830Z,2.40
2023-05-07T23:57:14.419Z,2.40
2023-05-07T23:59:41.669Z,2.40
